createdAt,value
2023-02-16T00:01:20.362Z,99.90
2023-02-16T00:03:49.176Z,99.90
2023-02-16T00:06:18.410Z,99.90
2023-02-16T00:08:49.143Z,99.90
2023-02-16T00:11:43.065Z,99.90
2023-02-16T00:14:14.561Z,99.90
2023-02-16T00:16:43.395Z,99.90
2023-02-16T00:19:21.504Z,99.90
2023-02-16T00:21:52.517Z,99.90
2023-02-16T00:24:20.825Z,99.90
2023-02-16T00:26:50.553Z,99.90
2023-02-16T00:29:26.578Z,99.90
2023-02-16T00:31:57.172Z,99.90
2023-02-16T00:34:33.678Z,99.90
2023-02-16T00:37:04.140Z,99.90
2023-02-16T00:39:34.322Z,99.90
2023-02-16T00:42:06.101Z,99.90
2023-02-16T00:44:42.755Z,99.90
2023-02-16T00:47:20.949Z,99.90
2023-02-16T00:49:50.419Z,99.90
2023-02-16T00:52:36.250Z,99.90
2023-02-16T00:55:08.029Z,99.90
2023-02-16T00:57:42.348Z,99.90
2023-02-16T01:00:22.673Z,99.90
2023-02-16T01:02:57.800Z,99.90
2023-02-16T01:05:26.753Z,99.90
2023-02-16T01:08:13.758Z,99.90
2023-02-16T01:11:05.728Z,99.90
2023-02-16T01:13:40.586Z,99.90
2023-02-16T01:16:17.288Z,99.90
2023-02-16T01:18:46.760Z,99.90
2023-02-16T01:21:15.095Z,99.90
2023-02-16T01:23:43.801Z,99.90
2023-02-16T01:26:17.457Z,99.90
2023-02-16T01:28:48.990Z,99.90
2023-02-16T01:31:19.695Z,99.90
2023-02-16T01:33:47.872Z,99.90
2023-02-16T01:36:25.502Z,99.90
2023-02-16T01:38:53.771Z,99.90
2023-02-16T01:41:41.756Z,99.90
2023-02-16T01:44:17.211Z,99.90
2023-02-16T01:46:53.810Z,99.90
2023-02-16T01:49:23.494Z,99.90
2023-02-16T01:52:03.486Z,99.90
2023-02-16T01:54:42.573Z,99.90
2023-02-16T01:57:26.938Z,99.90
2023-02-16T02:00:22.966Z,99.90
2023-02-16T02:03:19.069Z,99.90
2023-02-16T02:05:48.230Z,99.90
2023-02-16T02:08:28.488Z,99.90
2023-02-16T02:11:10.658Z,99.90
2023-02-16T02:13:46.049Z,99.90
2023-02-16T02:16:20.692Z,99.90
2023-02-16T02:18:51.031Z,99.90
2023-02-16T02:22:12.386Z,99.90
2023-02-16T02:25:20.401Z,99.90
2023-02-16T02:27:58.252Z,99.90
2023-02-16T02:30:47.312Z,99.90
2023-02-16T02:33:47.754Z,99.90
2023-02-16T02:36:29.785Z,99.90
2023-02-16T02:39:18.787Z,99.90
2023-02-16T02:42:07.741Z,99.90
2023-02-16T02:44:57.935Z,99.90
2023-02-16T02:47:39.539Z,99.90
2023-02-16T02:50:40.455Z,99.90
2023-02-16T02:53:15.673Z,99.90
2023-02-16T02:56:09.311Z,99.90
2023-02-16T02:59:06.097Z,99.90
2023-02-16T03:01:41.261Z,99.90
2023-02-16T03:04:15.484Z,99.90
2023-02-16T03:06:50.435Z,99.90
2023-02-16T03:09:19.090Z,99.90
2023-02-16T03:12:10.866Z,99.90
2023-02-16T03:14:45.641Z,99.90
2023-02-16T03:17:38.852Z,99.90
2023-02-16T03:20:33.750Z,99.90
2023-02-16T03:23:23.573Z,99.90
2023-02-16T03:26:11.916Z,99.90
2023-02-16T03:29:02.717Z,99.90
2023-02-16T03:31:38.620Z,99.90
2023-02-16T03:34:09.993Z,99.90
2023-02-16T03:36:43.975Z,99.90
2023-02-16T03:39:13.606Z,99.90
2023-02-16T03:41:49.749Z,99.90
2023-02-16T03:44:18.756Z,99.90
2023-02-16T03:46:49.478Z,99.90
2023-02-16T03:49:20.678Z,99.90
2023-02-16T03:51:51.147Z,99.90
2023-02-16T03:54:38.211Z,99.90
2023-02-16T03:57:06.698Z,99.90
2023-02-16T03:59:35.595Z,99.90
2023-02-16T04:02:03.806Z,99.90
2023-02-16T04:04:33.583Z,99.90
2023-02-16T04:07:02.050Z,99.90
2023-02-16T04:09:30.525Z,99.90
2023-02-16T04:12:16.707Z,99.90
2023-02-16T04:14:44.786Z,99.90
2023-02-16T04:17:13.094Z,99.90
2023-02-16T04:19:42.706Z,99.90
2023-02-16T04:22:10.854Z,99.90
2023-02-16T04:24:39.756Z,99.90
2023-02-16T04:27:08.547Z,99.90
2023-02-16T04:29:36.934Z,99.90
2023-02-16T04:32:05.561Z,99.90
2023-02-16T04:34:34.334Z,99.90
2023-02-16T04:37:03.910Z,99.90
2023-02-16T04:39:33.090Z,99.90
2023-02-16T04:42:01.403Z,99.90
2023-02-16T04:44:29.756Z,99.90
2023-02-16T04:46:58.278Z,99.90
2023-02-16T04:49:26.752Z,99.90
2023-02-16T04:51:54.866Z,99.90
2023-02-16T04:54:25.313Z,99.90
2023-02-16T04:56:53.476Z,99.90
2023-02-16T06:23:44.864Z,99.90
2023-02-16T06:26:12.970Z,99.90
2023-02-16T06:28:41.161Z,99.90
2023-02-16T06:31:09.842Z,99.90
2023-02-16T06:33:38.132Z,99.90
2023-02-16T06:36:07.928Z,99.90
2023-02-16T06:38:36.878Z,99.90
2023-02-16T06:41:07.062Z,99.90
2023-02-16T06:43:36.601Z,99.90
2023-02-16T06:46:05.701Z,99.90
2023-02-16T06:48:33.931Z,99.90
2023-02-16T06:51:02.299Z,99.90
2023-02-16T06:53:31.254Z,99.90
2023-02-16T06:55:59.304Z,99.90
2023-02-16T06:58:30.252Z,99.90
2023-02-16T07:00:58.341Z,99.90
2023-02-16T07:03:26.505Z,99.90
2023-02-16T07:05:54.597Z,99.90
2023-02-16T07:08:23.846Z,99.90
2023-02-16T07:10:54.169Z,99.90
2023-02-16T07:13:22.772Z,99.90
2023-02-16T07:15:52.555Z,99.90
2023-02-16T07:18:23.643Z,99.90
2023-02-16T07:20:52.095Z,99.90
2023-02-16T07:23:21.155Z,99.90
2023-02-16T07:25:49.531Z,99.90
2023-02-16T07:28:18.292Z,99.90
2023-02-16T07:30:46.470Z,99.90
2023-02-16T07:33:16.745Z,99.90
2023-02-16T07:35:45.382Z,99.90
2023-02-16T07:38:14.603Z,99.90
2023-02-16T07:40:43.293Z,99.90
2023-02-16T07:43:11.735Z,99.90
2023-02-16T07:45:40.587Z,99.90
2023-02-16T07:48:09.299Z,99.90
2023-02-16T07:50:39.054Z,99.90
2023-02-16T07:53:07.569Z,99.90
2023-02-16T07:55:41.116Z,99.90
2023-02-16T07:58:09.755Z,99.90
2023-02-16T08:00:38.041Z,99.90
2023-02-16T08:03:06.341Z,99.90
2023-02-16T08:05:36.008Z,99.90
2023-02-16T08:08:05.766Z,99.90
2023-02-16T08:10:34.090Z,99.90
2023-02-16T08:13:02.985Z,99.90
2023-02-16T08:15:31.480Z,99.90
2023-02-16T08:17:59.860Z,99.90
2023-02-16T08:20:48.159Z,99.90
2023-02-16T08:23:17.734Z,99.90
2023-02-16T08:25:45.829Z,99.90
2023-02-16T08:28:15.349Z,99.90
2023-02-16T08:30:43.399Z,99.90
2023-02-16T08:33:12.412Z,99.90
2023-02-16T08:35:41.503Z,99.90
2023-02-16T08:38:12.501Z,99.90
2023-02-16T08:40:42.415Z,99.90
2023-02-16T08:43:10.750Z,99.90
2023-02-16T08:45:39.561Z,99.90
2023-02-16T08:48:08.064Z,99.90
2023-02-16T08:50:36.871Z,99.90
2023-02-16T08:53:04.949Z,99.90
2023-02-16T08:55:33.614Z,99.90
2023-02-16T08:58:03.512Z,99.90
2023-02-16T09:00:38.997Z,99.90
2023-02-16T09:03:07.135Z,99.90
2023-02-16T09:05:35.463Z,99.90
2023-02-16T09:08:04.021Z,99.90
2023-02-16T09:10:31.962Z,99.90
2023-02-16T09:13:00.172Z,99.90
2023-02-16T09:15:30.087Z,99.90
2023-02-16T09:17:58.426Z,99.90
2023-02-16T09:20:27.643Z,99.90
2023-02-16T09:22:55.839Z,99.90
2023-02-16T09:25:25.590Z,99.90
2023-02-16T09:27:53.714Z,99.90
2023-02-16T09:30:22.778Z,99.90
2023-02-16T09:32:52.712Z,99.90
2023-02-16T09:35:21.190Z,99.90
2023-02-16T09:37:49.819Z,99.90
2023-02-16T09:40:18.347Z,99.90
2023-02-16T09:43:04.260Z,99.90
2023-02-16T09:45:40.869Z,99.90
2023-02-16T09:48:22.879Z,99.90
2023-02-16T09:50:55.350Z,99.90
2023-02-16T09:53:33.694Z,99.90
2023-02-16T09:56:17.970Z,99.90
2023-02-16T09:58:54.295Z,99.90
2023-02-16T10:01:35.599Z,99.90
2023-02-16T10:04:34.836Z,99.90
2023-02-16T10:07:23.072Z,99.90
2023-02-16T10:09:56.475Z,99.90
2023-02-16T10:12:31.367Z,99.90
2023-02-16T10:15:08.592Z,99.90
2023-02-16T10:17:46.944Z,99.90
2023-02-16T10:20:23.841Z,99.90
2023-02-16T10:23:03.521Z,99.90
2023-02-16T10:25:44.961Z,99.90
2023-02-16T10:28:22.465Z,99.90
2023-02-16T10:31:03.174Z,99.90
2023-02-16T10:33:43.875Z,99.90
2023-02-16T10:36:29.151Z,99.90
2023-02-16T10:39:10.551Z,99.90
2023-02-16T10:41:46.803Z,99.90
2023-02-16T10:44:22.795Z,99.90
2023-02-16T10:46:59.638Z,99.90
2023-02-16T10:49:30.468Z,99.90
2023-02-16T10:52:03.949Z,99.90
2023-02-16T10:54:35.091Z,99.90
2023-02-16T10:57:06.410Z,99.90
2023-02-16T10:59:40.293Z,99.90
2023-02-16T11:02:20.459Z,99.90
2023-02-16T11:04:52.509Z,99.90
2023-02-16T11:07:25.322Z,99.90
2023-02-16T11:09:57.004Z,99.90
2023-02-16T11:12:30.839Z,99.90
2023-02-16T11:15:06.620Z,99.90
2023-02-16T11:17:51.574Z,99.90
2023-02-16T11:20:29.605Z,99.90
2023-02-16T11:23:24.008Z,99.90
2023-02-16T11:25:58.799Z,99.90
2023-02-16T11:28:32.689Z,99.90
2023-02-16T11:31:17.773Z,99.50
2023-02-16T11:34:01.086Z,98.30
2023-02-16T11:36:34.372Z,98.30
2023-02-16T11:39:11.102Z,97.50
2023-02-16T11:41:39.530Z,96.50
2023-02-16T11:44:27.663Z,97.20
2023-02-16T11:46:59.090Z,97.70
2023-02-16T11:49:35.050Z,98.40
2023-02-16T11:52:25.665Z,98.50
2023-02-16T11:54:59.420Z,97.30
2023-02-16T11:57:31.162Z,96.40
2023-02-16T12:00:07.673Z,95.90
2023-02-16T12:03:11.219Z,96.20
2023-02-16T12:06:01.448Z,96.30
2023-02-16T12:08:48.114Z,95.90
2023-02-16T12:11:31.724Z,95.60
2023-02-16T12:14:21.006Z,95.40
2023-02-16T12:17:02.365Z,94.10
2023-02-16T12:19:42.744Z,93.20
2023-02-16T12:22:29.477Z,93.40
2023-02-16T12:25:23.014Z,93.30
2023-02-16T12:28:01.712Z,93.30
2023-02-16T12:30:50.539Z,93.30
2023-02-16T12:33:34.910Z,92.80
2023-02-16T12:36:39.143Z,93.00
2023-02-16T12:39:19.594Z,93.00
2023-02-16T12:42:09.839Z,93.50
2023-02-16T12:44:48.476Z,93.50
2023-02-16T12:47:28.131Z,94.30
2023-02-16T12:50:03.579Z,95.30
2023-02-16T12:52:42.636Z,94.90
2023-02-16T12:55:22.274Z,94.90
2023-02-16T12:58:04.462Z,95.20
2023-02-16T13:00:57.247Z,95.70
2023-02-16T13:03:41.476Z,96.20
2023-02-16T13:06:19.333Z,95.70
2023-02-16T13:08:56.677Z,95.70
2023-02-16T13:11:35.508Z,96.00
2023-02-16T13:14:12.716Z,96.50
2023-02-16T13:16:47.677Z,96.10
2023-02-16T13:19:18.761Z,96.20
2023-02-16T13:22:48.707Z,96.10
2023-02-16T13:25:44.373Z,96.00
2023-02-16T13:28:38.045Z,95.60
2023-02-16T13:31:29.740Z,95.80
2023-02-16T13:34:31.382Z,95.80
2023-02-16T13:37:34.601Z,95.70
2023-02-16T13:40:43.341Z,95.80
2023-02-16T13:43:31.804Z,95.10
2023-02-16T13:46:07.107Z,95.10
2023-02-16T13:48:47.606Z,95.00
2023-02-16T13:51:21.892Z,94.30
2023-02-16T13:53:57.646Z,93.90
2023-02-16T13:56:36.724Z,93.90
2023-02-16T14:00:00.750Z,93.70
2023-02-16T14:02:57.648Z,94.30
2023-02-16T14:05:36.586Z,94.20
2023-02-16T14:08:23.114Z,93.40
2023-02-16T14:11:12.562Z,92.60
2023-02-16T14:13:51.992Z,91.80
2023-02-16T14:16:35.061Z,90.90
2023-02-16T14:19:20.027Z,90.90
2023-02-16T14:21:50.783Z,91.50
2023-02-16T14:24:34.251Z,92.00
2023-02-16T14:27:05.817Z,91.80
2023-02-16T14:29:39.037Z,91.70
2023-02-16T14:32:25.251Z,91.70
2023-02-16T14:34:59.588Z,92.40
2023-02-16T14:37:38.005Z,93.30
2023-02-16T14:40:19.183Z,93.80
2023-02-16T14:42:59.892Z,93.90
2023-02-16T14:45:55.223Z,93.80
2023-02-16T14:48:50.301Z,94.10
2023-02-16T14:51:47.806Z,94.00
2023-02-16T14:55:08.027Z,94.20
2023-02-16T14:57:48.475Z,93.80
2023-02-16T15:00:30.917Z,94.30
2023-02-16T15:03:02.934Z,94.50
2023-02-16T15:05:35.651Z,94.70
2023-02-16T15:08:17.308Z,94.60
2023-02-16T15:10:47.842Z,94.70
2023-02-16T15:13:24.156Z,95.10
2023-02-16T15:15:57.170Z,95.10
2023-02-16T15:18:30.631Z,95.50
2023-02-16T15:20:59.418Z,95.80
2023-02-16T15:23:30.995Z,96.40
2023-02-16T15:26:03.410Z,96.30
2023-02-16T15:28:36.129Z,96.20
2023-02-16T15:31:09.391Z,96.50
2023-02-16T15:33:41.828Z,96.60
2023-02-16T15:36:14.435Z,96.70
2023-02-16T15:38:55.160Z,96.90
2023-02-16T15:41:30.904Z,97.00
2023-02-16T15:44:02.563Z,97.20
2023-02-16T15:46:34.428Z,97.30
2023-02-16T15:49:13.986Z,97.50
2023-02-16T15:51:43.741Z,97.50
2023-02-16T15:54:29.382Z,97.40
2023-02-16T15:57:00.816Z,97.60
2023-02-16T15:59:38.747Z,97.70
2023-02-16T16:02:16.622Z,97.90
2023-02-16T16:04:49.557Z,98.00
2023-02-16T16:07:26.676Z,98.10
2023-02-16T16:09:58.062Z,98.10
2023-02-16T16:12:26.910Z,98.10
2023-02-16T16:33:55.753Z,98.60
2023-02-16T17:19:50.609Z,99.90
2023-02-16T18:37:01.811Z,99.90
2023-02-16T18:39:30.030Z,99.90
2023-02-16T18:41:58.165Z,99.90
2023-02-16T18:44:26.284Z,99.90
2023-02-16T18:46:56.016Z,99.90
2023-02-16T18:49:24.580Z,99.90
2023-02-16T18:51:53.031Z,99.90
2023-02-16T18:54:22.568Z,99.90
2023-02-16T18:56:51.030Z,99.90
2023-02-16T18:59:19.652Z,99.90
2023-02-16T19:01:47.751Z,99.90
2023-02-16T19:04:15.925Z,99.90
2023-02-16T19:06:44.091Z,99.90
2023-02-16T19:09:12.446Z,99.90
2023-02-16T19:11:42.111Z,99.90
2023-02-16T19:14:11.471Z,99.90
2023-02-16T19:16:41.156Z,99.90
2023-02-16T19:19:09.491Z,99.90
2023-02-16T19:21:38.331Z,99.90
2023-02-16T19:24:08.076Z,99.90
2023-02-16T19:26:36.508Z,99.90
2023-02-16T19:29:06.337Z,99.90
2023-02-16T19:31:35.360Z,99.90
2023-02-16T19:34:03.924Z,99.90
2023-02-16T19:36:34.183Z,99.90
2023-02-16T19:39:03.534Z,99.90
2023-02-16T19:41:35.606Z,99.90
2023-02-16T19:44:06.058Z,99.90
2023-02-16T19:46:35.343Z,99.90
2023-02-16T19:49:04.201Z,99.90
2023-02-16T19:51:32.767Z,99.90
2023-02-16T19:54:01.384Z,99.90
2023-02-16T19:56:30.225Z,99.90
2023-02-16T19:59:00.062Z,99.90
2023-02-16T20:01:31.006Z,99.90
2023-02-16T20:04:00.118Z,99.90
2023-02-16T20:06:31.839Z,99.90
2023-02-16T20:09:01.736Z,99.90
2023-02-16T20:11:30.705Z,99.90
2023-02-16T20:14:01.097Z,99.90
2023-02-16T20:16:31.304Z,99.90
2023-02-16T20:19:00.567Z,99.90
2023-02-16T20:21:31.216Z,99.90
2023-02-16T20:24:02.261Z,99.90
2023-02-16T20:26:34.606Z,99.90
2023-02-16T20:29:04.311Z,99.90
2023-02-16T20:31:37.445Z,99.90
2023-02-16T20:34:06.639Z,99.90
2023-02-16T20:36:35.968Z,99.90
2023-02-16T20:39:05.644Z,99.90
2023-02-16T20:41:35.180Z,99.90
2023-02-16T20:44:03.864Z,99.90
2023-02-16T20:46:35.223Z,99.90
2023-02-16T20:49:04.567Z,99.90
2023-02-16T20:51:33.258Z,99.90
2023-02-16T20:54:03.397Z,99.90
2023-02-16T20:56:32.737Z,99.90
2023-02-16T20:59:01.459Z,99.90
2023-02-16T21:01:37.020Z,99.90
2023-02-16T21:04:07.486Z,99.90
2023-02-16T21:06:36.789Z,99.90
2023-02-16T21:09:07.614Z,99.90
2023-02-16T21:11:38.355Z,99.90
2023-02-16T21:14:07.806Z,99.90
2023-02-16T21:16:38.963Z,99.90
2023-02-16T21:19:20.884Z,99.90
2023-02-16T21:21:51.280Z,99.90
2023-02-16T21:24:21.605Z,99.90
2023-02-16T21:26:50.120Z,99.90
2023-02-16T21:29:18.288Z,99.90
2023-02-16T21:31:48.166Z,99.90
2023-02-16T21:34:17.585Z,99.90
2023-02-16T21:36:45.964Z,99.90
2023-02-16T21:39:14.331Z,99.90
2023-02-16T21:41:41.603Z,99.90
2023-02-16T21:44:32.203Z,99.90
2023-02-16T21:47:19.208Z,99.90
2023-02-16T21:49:47.643Z,99.90
2023-02-16T21:52:16.870Z,99.90
2023-02-16T21:55:03.063Z,99.90
2023-02-16T21:57:31.223Z,99.90
2023-02-16T21:59:59.530Z,99.90
2023-02-16T22:02:29.402Z,99.90
2023-02-16T22:04:58.351Z,99.90
2023-02-16T22:07:26.463Z,99.90
2023-02-16T22:09:55.208Z,99.90
2023-02-16T22:12:23.715Z,99.90
2023-02-16T22:14:51.692Z,99.90
2023-02-16T22:17:19.796Z,99.90
2023-02-16T22:19:51.224Z,99.90
2023-02-16T22:22:19.407Z,99.90
2023-02-16T22:24:47.768Z,99.90
2023-02-16T22:27:16.136Z,99.90
2023-02-16T22:29:45.341Z,99.90
2023-02-16T22:32:14.762Z,99.90
2023-02-16T22:34:43.175Z,99.90
2023-02-16T22:37:14.119Z,99.90
2023-02-16T22:39:42.177Z,99.90
2023-02-16T22:42:11.141Z,99.90
2023-02-16T22:44:39.475Z,99.90
2023-02-16T22:47:07.823Z,99.90
2023-02-16T22:49:36.245Z,99.90
2023-02-16T22:52:04.434Z,99.90
2023-02-16T22:54:34.527Z,99.90
2023-02-16T22:57:02.632Z,99.90
2023-02-16T22:59:31.093Z,99.90
2023-02-16T23:02:01.175Z,99.90
